Time;durP1;ratioP1;P1;durP2;ratioP2;P2;SDS_P1;SDS_P2;PMS_P1;PMS_P2;Temp;Humidity;BMP_temperature;BMP_pressure;BME280_temperature;BME280_humidity;BME280_pressure;Samples;Min_cycle;Max_cycle;Signal;HPM_P1;HPM_P2
2022/05/16 00:00:51;;;;;;;2.63;1.92;;;21.50;52.60;;;;;;5066654;28;43463;-61
2022/05/16 00:03:18;;;;;;;1.95;1.42;;;21.50;52.60;;;;;;5064129;28;43439;-61
2022/05/16 00:05:46;;;;;;;2.13;1.90;;;21.50;52.60;;;;;;5065936;28;44035;-61
2022/05/16 00:08:13;;;;;;;1.83;1.65;;;21.50;52.60;;;;;;5066745;28;43793;-60
2022/05/16 00:10:41;;;;;;;1.83;1.60;;;21.50;52.60;;;;;;5072512;28;43452;-60
2022/05/16 00:13:09;;;;;;;3.15;1.67;;;21.50;52.60;;;;;;5070027;27;43921;-61
2022/05/16 00:15:37;;;;;;;1.52;1.42;;;21.50;52.60;;;;;;5064272;28;44709;-61
2022/05/16 00:18:05;;;;;;;2.30;1.60;;;21.50;52.70;;;;;;5066609;28;43495;-61
2022/05/16 00:20:33;;;;;;;2.55;1.40;;;21.50;52.60;;;;;;5068186;28;43509;-61
2022/05/16 00:23:00;;;;;;;1.40;1.30;;;21.50;52.60;;;;;;5064544;28;43551;-61
2022/05/16 00:25:28;;;;;;;2.22;1.50;;;21.50;52.60;;;;;;5063386;28;44683;-61
2022/05/16 00:27:55;;;;;;;2.55;1.50;;;21.50;52.60;;;;;;5066443;28;43486;-61
2022/05/16 00:30:23;;;;;;;2.10;1.60;;;21.50;52.60;;;;;;5066877;28;43413;-61
2022/05/16 00:32:52;;;;;;;2.65;1.70;;;21.50;52.60;;;;;;5068210;28;43569;-61
2022/05/16 00:35:22;;;;;;;1.90;1.70;;;21.50;52.60;;;;;;5055797;28;43787;-61
2022/05/16 00:37:49;;;;;;;2.10;1.33;;;21.40;52.60;;;;;;5066377;28;43367;-61
2022/05/16 00:40:17;;;;;;;2.63;1.33;;;21.40;52.50;;;;;;5067859;28;43434;-61
2022/05/16 00:42:45;;;;;;;2.25;1.73;;;21.40;52.50;;;;;;5066922;27;43449;-61
2022/05/16 00:45:16;;;;;;;1.80;1.60;;;21.40;52.50;;;;;;5066051;28;43820;-61
2022/05/16 00:47:44;;;;;;;1.55;1.30;;;21.40;52.60;;;;;;5066470;28;43557;-61
2022/05/16 00:50:13;;;;;;;2.25;1.40;;;21.40;52.60;;;;;;5068773;28;43480;-61
2022/05/16 00:52:45;;;;;;;2.42;1.38;;;21.40;52.60;;;;;;5065175;27;43481;-60
2022/05/16 00:55:24;;;;;;;2.00;1.50;;;21.40;52.60;;;;;;5064841;28;44168;-61
2022/05/16 00:57:54;;;;;;;1.75;1.52;;;21.40;52.60;;;;;;5062219;28;43437;-60
2022/05/16 01:00:29;;;;;;;2.08;1.48;;;21.40;52.50;;;;;;5065356;28;43419;-60
2022/05/16 01:05:45;;;;;;;1.70;1.45;;;21.30;52.50;;;;;;5066004;28;44702;-61
2022/05/16 01:08:19;;;;;;;1.73;1.30;;;21.30;52.50;;;;;;5068978;27;43676;-61
2022/05/16 01:10:47;;;;;;;1.63;1.50;;;21.30;52.50;;;;;;5054198;28;44044;-61
2022/05/16 01:13:14;;;;;;;2.13;1.35;;;21.30;52.50;;;;;;5069276;28;43446;-61
2022/05/16 01:15:46;;;;;;;1.65;1.42;;;21.30;52.60;;;;;;5070402;28;43799;-61
2022/05/16 01:18:17;;;;;;;2.15;1.60;;;21.30;52.60;;;;;;5070110;28;43537;-61
2022/05/16 01:20:45;;;;;;;1.52;1.25;;;21.30;52.50;;;;;;5068304;28;43423;-61
2022/05/16 01:23:19;;;;;;;1.60;1.50;;;21.30;52.50;;;;;;5069669;28;43490;-61
2022/05/16 01:25:49;;;;;;;2.42;1.30;;;21.30;52.50;;;;;;5071718;28;43797;-60
2022/05/16 01:28:20;;;;;;;2.50;1.60;;;21.30;52.50;;;;;;5068999;28;43878;-61
2022/05/16 01:30:48;;;;;;;2.13;1.65;;;21.30;52.50;;;;;;5065596;28;43497;-61
2022/05/16 01:33:17;;;;;;;1.63;1.40;;;21.30;52.50;;;;;;5069666;28;43455;-61
2022/05/16 01:35:45;;;;;;;1.60;1.50;;;21.30;52.50;;;;;;5067197;28;44714;-61
2022/05/16 01:38:21;;;;;;;1.58;1.40;;;21.30;52.50;;;;;;5062748;28;43457;-61
2022/05/16 01:40:54;;;;;;;1.50;1.30;;;21.20;52.50;;;;;;5069561;28;43422;-62
2022/05/16 01:43:28;;;;;;;1.98;1.50;;;21.20;52.50;;;;;;5070338;28;43391;-61
2022/05/16 01:45:56;;;;;;;2.13;1.40;;;21.20;52.50;;;;;;5069429;28;44052;-61
2022/05/16 01:48:24;;;;;;;1.95;1.48;;;21.20;52.50;;;;;;5066547;28;44289;-61
2022/05/16 01:50:58;;;;;;;1.52;1.42;;;21.20;52.50;;;;;;5069290;28;43462;-61
2022/05/16 01:53:25;;;;;;;1.30;1.20;;;21.20;52.50;;;;;;5066589;28;43525;-60
2022/05/16 01:55:53;;;;;;;1.40;1.30;;;21.10;52.50;;;;;;5068216;28;43819;-61
2022/05/16 01:58:21;;;;;;;1.67;1.50;;;21.10;52.50;;;;;;5065774;28;43416;-61
2022/05/16 02:00:49;;;;;;;1.63;1.40;;;21.10;52.50;;;;;;5069048;28;43448;-61
2022/05/16 02:03:17;;;;;;;2.13;1.55;;;21.10;52.50;;;;;;5072009;28;43648;-61
2022/05/16 02:05:45;;;;;;;1.98;1.35;;;21.10;52.50;;;;;;5067806;28;43787;-61
2022/05/16 02:08:13;;;;;;;1.65;1.50;;;21.10;52.40;;;;;;5066105;28;44064;-61
2022/05/16 02:10:42;;;;;;;1.50;1.40;;;21.10;52.40;;;;;;5069313;28;43525;-61
2022/05/16 02:13:11;;;;;;;2.38;1.50;;;21.10;52.40;;;;;;5071509;27;43465;-61
2022/05/16 02:15:42;;;;;;;1.60;1.40;;;21.10;52.40;;;;;;5067169;28;43819;-61
2022/05/16 02:18:10;;;;;;;1.42;1.30;;;21.10;52.50;;;;;;5068750;28;43510;-61
2022/05/16 02:20:38;;;;;;;1.67;1.30;;;21.10;52.50;;;;;;5070903;28;43437;-61
2022/05/16 02:25:54;;;;;;;1.70;1.60;;;21.00;52.40;;;;;;5065953;28;44258;-61
2022/05/16 02:28:22;;;;;;;2.10;1.42;;;21.10;52.50;;;;;;5068695;28;43424;-61
2022/05/16 02:30:52;;;;;;;1.27;1.10;;;21.00;52.40;;;;;;5070830;27;43457;-61
2022/05/16 02:33:20;;;;;;;1.92;1.40;;;21.00;52.30;;;;;;5066484;28;43454;-61
2022/05/16 02:35:48;;;;;;;1.60;1.50;;;21.00;52.30;;;;;;5065552;28;43873;-60
2022/05/16 02:38:17;;;;;;;1.70;1.60;;;21.00;52.30;;;;;;5068779;28;43755;-61
2022/05/16 02:40:45;;;;;;;1.25;1.17;;;21.00;52.30;;;;;;5070268;27;43407;-61
2022/05/16 02:43:13;;;;;;;1.50;1.40;;;21.00;52.30;;;;;;5067379;28;43430;-61
2022/05/16 02:45:41;;;;;;;1.35;1.25;;;21.00;52.30;;;;;;5068161;28;43778;-61
2022/05/16 02:48:08;;;;;;;1.40;1.30;;;21.00;52.30;;;;;;5068101;28;43545;-61
2022/05/16 02:50:36;;;;;;;1.27;1.17;;;21.00;52.30;;;;;;5069255;28;43416;-61
2022/05/16 02:53:04;;;;;;;1.30;1.10;;;21.00;52.30;;;;;;5066180;28;43441;-61
2022/05/16 02:55:32;;;;;;;1.98;1.25;;;21.00;52.30;;;;;;5068307;28;43800;-60
2022/05/16 02:58:00;;;;;;;1.75;1.52;;;21.00;52.30;;;;;;5069516;28;44004;-62
2022/05/16 03:00:27;;;;;;;1.33;1.23;;;21.00;52.20;;;;;;5069453;28;43461;-61
2022/05/16 03:02:55;;;;;;;1.52;1.42;;;21.00;52.20;;;;;;5065712;28;43599;-61
2022/05/16 03:05:22;;;;;;;1.35;1.25;;;21.00;52.20;;;;;;5067868;28;44042;-61
2022/05/16 03:07:50;;;;;;;1.27;1.20;;;20.90;52.20;;;;;;5069009;28;43444;-61
2022/05/16 03:10:17;;;;;;;1.60;1.33;;;20.90;52.20;;;;;;5069811;28;43470;-61
2022/05/16 03:12:46;;;;;;;1.38;1.30;;;20.90;52.10;;;;;;5068194;28;44102;-62
2022/05/16 03:15:15;;;;;;;2.30;1.35;;;20.90;52.20;;;;;;5067553;28;43811;-61
2022/05/16 03:17:44;;;;;;;1.80;1.30;;;20.90;52.10;;;;;;5069372;28;43494;-62
2022/05/16 03:20:15;;;;;;;1.98;1.17;;;20.90;52.10;;;;;;5066910;27;43445;-61
2022/05/16 03:22:42;;;;;;;1.53;1.30;;;20.90;52.10;;;;;;5067911;28;43421;-61
2022/05/16 03:25:10;;;;;;;1.45;1.35;;;20.90;52.20;;;;;;5067475;28;43827;-61
2022/05/16 03:27:38;;;;;;;1.83;1.40;;;20.90;52.20;;;;;;5069395;28;43680;-61
2022/05/16 03:30:08;;;;;;;1.40;1.30;;;20.90;52.10;;;;;;5065327;28;43420;-61
2022/05/16 03:32:36;;;;;;;1.48;1.38;;;20.80;52.10;;;;;;5067673;28;44041;-61
2022/05/16 03:35:05;;;;;;;1.27;1.17;;;20.80;52.10;;;;;;5066309;28;44659;-61
2022/05/16 03:37:33;;;;;;;1.23;1.10;;;20.80;52.10;;;;;;5069840;28;43456;-61
2022/05/16 03:42:46;;;;;;;1.23;1.15;;;20.80;52.10;;;;;;5066354;28;43479;-61
2022/05/16 03:45:15;;;;;;;1.40;1.30;;;20.80;52.10;;;;;;5065827;28;44687;-61
2022/05/16 03:47:43;;;;;;;1.98;1.35;;;20.80;52.10;;;;;;5065307;27;43422;-61
2022/05/16 03:50:11;;;;;;;1.67;1.30;;;20.80;52.10;;;;;;5065905;28;43507;-61
2022/05/16 03:52:38;;;;;;;1.40;1.30;;;20.80;52.10;;;;;;5067462;28;43439;-61
2022/05/16 03:55:09;;;;;;;0.93;0.93;;;20.80;52.00;;;;;;5068910;28;43933;-61
2022/05/16 03:57:36;;;;;;;2.00;1.42;;;20.70;52.00;;;;;;5064493;27;43431;-62
2022/05/16 04:00:09;;;;;;;1.40;1.30;;;20.80;52.10;;;;;;5067632;28;44088;-61
2022/05/16 04:02:40;;;;;;;1.35;1.25;;;20.70;52.00;;;;;;5063169;28;43449;-61
2022/05/16 04:05:09;;;;;;;1.35;1.20;;;20.70;51.90;;;;;;5069969;28;44881;-61
2022/05/16 04:07:37;;;;;;;1.30;1.20;;;20.70;52.00;;;;;;5061903;28;43501;-61
2022/05/16 04:10:05;;;;;;;1.13;1.02;;;20.70;51.90;;;;;;5066373;28;43447;-61
2022/05/16 04:12:32;;;;;;;1.10;1.10;;;20.70;51.90;;;;;;5071132;27;43577;-61
2022/05/16 04:15:00;;;;;;;1.30;1.20;;;20.70;51.90;;;;;;5063749;28;44032;-61
2022/05/16 04:17:28;;;;;;;1.00;1.00;;;20.70;52.00;;;;;;5066187;28;43469;-61
2022/05/16 04:19:55;;;;;;;1.42;1.13;;;20.70;51.90;;;;;;5066838;28;43423;-61
2022/05/16 04:22:23;;;;;;;1.35;1.25;;;20.70;51.90;;;;;;5067243;28;43443;-61
2022/05/16 04:24:50;;;;;;;1.40;1.20;;;20.70;51.90;;;;;;5062554;28;43791;-61
2022/05/16 04:27:18;;;;;;;1.33;1.23;;;20.70;51.90;;;;;;5066649;28;43598;-62
2022/05/16 04:29:45;;;;;;;1.20;1.10;;;20.70;51.90;;;;;;5066007;28;43509;-61
2022/05/16 04:32:12;;;;;;;1.10;1.00;;;20.60;51.90;;;;;;5067060;28;43447;-61
2022/05/16 04:34:40;;;;;;;1.25;1.15;;;20.70;51.90;;;;;;5061146;28;44049;-60
2022/05/16 04:37:07;;;;;;;1.40;1.10;;;20.60;51.90;;;;;;5066573;27;43490;-61
2022/05/16 04:39:35;;;;;;;1.15;1.15;;;20.60;51.80;;;;;;5066974;28;43392;-61
2022/05/16 04:44:48;;;;;;;1.55;1.42;;;20.60;51.80;;;;;;5067390;28;43795;-61
2022/05/16 04:47:16;;;;;;;1.27;1.17;;;20.60;51.90;;;;;;5067790;28;43522;-61
2022/05/16 04:49:44;;;;;;;1.73;1.45;;;20.60;51.80;;;;;;5067594;28;44146;-61
2022/05/16 04:52:11;;;;;;;1.42;1.30;;;20.60;51.90;;;;;;5072708;28;43451;-61
2022/05/16 04:54:40;;;;;;;1.33;1.23;;;20.60;51.80;;;;;;5070166;28;44656;-62
2022/05/16 04:57:07;;;;;;;1.42;1.30;;;20.60;51.90;;;;;;5067479;28;43529;-61
2022/05/16 04:59:35;;;;;;;1.60;1.10;;;20.60;51.90;;;;;;5070238;28;43407;-61
2022/05/16 05:02:03;;;;;;;1.38;1.27;;;20.60;51.90;;;;;;5071950;28;43431;-61
2022/05/16 05:04:30;;;;;;;1.38;1.30;;;20.60;51.90;;;;;;5069927;28;43797;-61
2022/05/16 05:06:57;;;;;;;2.15;1.33;;;20.60;51.80;;;;;;5069470;28;43717;-61
2022/05/16 05:09:25;;;;;;;1.30;1.20;;;20.50;51.80;;;;;;5070059;28;43467;-61
2022/05/16 05:14:41;;;;;;;1.45;1.20;;;20.50;51.80;;;;;;5061400;28;43857;-61
2022/05/16 05:17:11;;;;;;;1.48;1.33;;;20.50;51.90;;;;;;5069535;28;44076;-61
2022/05/16 05:19:42;;;;;;;1.30;1.20;;;20.50;51.90;;;;;;5072110;28;43442;-61
2022/05/16 05:22:09;;;;;;;1.83;1.15;;;20.50;51.90;;;;;;5052817;28;43522;-61
2022/05/16 05:24:37;;;;;;;1.55;1.42;;;20.40;51.90;;;;;;5069561;28;43775;-61
2022/05/16 05:27:05;;;;;;;2.13;1.20;;;20.40;51.90;;;;;;5069210;28;43454;-61
2022/05/16 05:29:32;;;;;;;1.40;1.30;;;20.40;51.90;;;;;;5070738;28;43442;-61
2022/05/16 05:31:59;;;;;;;1.85;1.38;;;20.40;51.90;;;;;;5069531;28;43461;-61
2022/05/16 05:34:28;;;;;;;1.20;1.10;;;20.40;51.90;;;;;;5069190;28;44050;-61
2022/05/16 05:36:56;;;;;;;1.40;1.30;;;20.40;51.90;;;;;;5066949;28;43461;-61
2022/05/16 05:39:23;;;;;;;1.70;1.33;;;20.40;51.90;;;;;;5070680;28;43486;-61
2022/05/16 05:41:51;;;;;;;1.10;1.00;;;20.40;52.00;;;;;;5069118;28;43502;-61
2022/05/16 05:44:18;;;;;;;1.98;1.40;;;20.40;52.60;;;;;;5068093;28;44649;-62
2022/05/16 05:46:46;;;;;;;1.92;1.30;;;20.40;52.00;;;;;;5067172;28;43523;-61
2022/05/16 05:49:14;;;;;;;1.45;1.20;;;20.40;52.00;;;;;;5070455;28;43558;-61
2022/05/16 05:51:41;;;;;;;1.45;1.30;;;20.40;52.00;;;;;;5069985;28;43474;-62
2022/05/16 05:54:09;;;;;;;2.35;1.10;;;20.40;52.00;;;;;;5069133;28;44702;-61
2022/05/16 05:56:37;;;;;;;3.17;1.45;;;20.40;52.00;;;;;;5068801;28;43474;-62
2022/05/16 05:59:05;;;;;;;1.30;1.20;;;20.40;52.10;;;;;;5068483;28;43467;-61
2022/05/16 06:01:32;;;;;;;1.73;1.13;;;20.40;52.10;;;;;;5070552;27;43453;-62
2022/05/16 06:04:00;;;;;;;2.45;1.30;;;20.40;52.10;;;;;;5068358;28;44400;-60
2022/05/16 06:06:28;;;;;;;2.28;1.30;;;20.40;52.10;;;;;;5068067;28;43706;-61
2022/05/16 06:08:55;;;;;;;1.70;1.42;;;20.40;52.20;;;;;;5068832;28;43602;-62
2022/05/16 06:11:28;;;;;;;1.20;1.10;;;20.40;52.10;;;;;;5074700;27;43544;-61
2022/05/16 06:13:58;;;;;;;1.83;1.33;;;20.40;52.20;;;;;;5068991;28;45004;-62
2022/05/16 06:16:25;;;;;;;1.20;1.10;;;20.40;52.20;;;;;;5068037;28;43633;-61
2022/05/16 06:18:53;;;;;;;1.10;1.00;;;20.50;52.20;;;;;;5068373;28;43500;-62
2022/05/16 06:21:21;;;;;;;1.15;1.02;;;20.40;52.20;;;;;;5071277;27;43458;-61
2022/05/16 06:23:49;;;;;;;1.00;1.00;;;20.50;52.20;;;;;;5068615;28;43776;-61
2022/05/16 06:26:17;;;;;;;1.13;1.02;;;20.50;52.20;;;;;;5067154;28;43468;-61
2022/05/16 06:28:44;;;;;;;1.25;1.00;;;20.40;52.20;;;;;;5066109;28;43448;-62
2022/05/16 06:31:12;;;;;;;1.42;1.30;;;20.50;52.20;;;;;;5068039;28;43470;-61
2022/05/16 06:33:40;;;;;;;1.98;1.10;;;20.40;52.20;;;;;;5068594;28;44651;-61
2022/05/16 06:36:07;;;;;;;1.40;1.10;;;20.50;52.20;;;;;;5066115;28;43605;-61
2022/05/16 06:38:35;;;;;;;1.40;1.30;;;20.50;52.20;;;;;;5060609;28;43451;-62
2022/05/16 06:41:03;;;;;;;1.27;1.00;;;20.50;52.10;;;;;;5068078;28;43481;-61
2022/05/16 06:43:32;;;;;;;1.38;1.27;;;20.50;52.20;;;;;;5067252;28;43808;-61
2022/05/16 06:46:01;;;;;;;1.17;1.10;;;20.40;52.10;;;;;;5068198;28;43661;-61
2022/05/16 06:48:30;;;;;;;1.58;1.27;;;20.50;52.20;;;;;;5067838;27;43432;-61
2022/05/16 06:50:57;;;;;;;1.63;1.23;;;20.50;52.10;;;;;;5068459;28;43551;-60
2022/05/16 06:53:29;;;;;;;1.65;1.55;;;20.50;52.20;;;;;;5066616;28;45092;-60
2022/05/16 06:55:58;;;;;;;1.40;1.30;;;20.50;52.20;;;;;;5069164;28;43817;-60
2022/05/16 06:58:26;;;;;;;3.35;2.88;;;20.50;52.30;;;;;;5067245;27;43435;-60
2022/05/16 07:00:54;;;;;;;2.55;2.28;;;20.50;52.20;;;;;;5071809;28;43514;-60
2022/05/16 07:03:22;;;;;;;2.47;1.77;;;20.50;52.10;;;;;;5065717;28;43936;-59
2022/05/16 07:05:51;;;;;;;1.95;1.80;;;20.60;52.00;;;;;;5069199;28;43664;-60
2022/05/16 07:08:20;;;;;;;1.83;1.60;;;20.60;52.40;;;;;;5069180;27;43586;-61
2022/05/16 07:10:49;;;;;;;1.90;1.80;;;20.60;52.20;;;;;;5058099;28;43516;-60
2022/05/16 07:13:23;;;;;;;2.67;1.88;;;20.70;52.20;;;;;;5063103;28;46109;-61
2022/05/16 07:15:51;;;;;;;2.00;1.65;;;20.70;52.20;;;;;;5070170;28;43699;-59
2022/05/16 07:18:19;;;;;;;2.72;2.05;;;20.70;52.00;;;;;;5067936;28;43406;-60
2022/05/16 07:20:46;;;;;;;2.00;1.80;;;20.80;52.20;;;;;;5067296;28;43488;-60
2022/05/16 07:23:14;;;;;;;4.15;1.85;;;20.90;52.00;;;;;;5067605;28;44666;-60
2022/05/16 07:28:30;;;;;;;3.80;1.73;;;21.10;52.00;;;;;;5048751;27;43538;-59
2022/05/16 07:30:57;;;;;;;5.13;1.80;;;21.30;52.10;;;;;;5065753;28;43576;-60
2022/05/16 07:33:25;;;;;;;7.03;1.85;;;21.40;52.20;;;;;;5067370;28;44688;-60
2022/05/16 07:35:55;;;;;;;3.53;2.03;;;21.50;52.10;;;;;;5068045;27;43981;-60
2022/05/16 07:38:25;;;;;;;12.02;2.40;;;21.60;51.90;;;;;;5057787;28;43422;-60
2022/05/16 07:40:53;;;;;;;4.82;1.98;;;21.70;51.80;;;;;;5064711;28;43409;-60
2022/05/16 07:43:22;;;;;;;3.10;1.70;;;21.80;51.70;;;;;;5069020;28;44991;-59
2022/05/16 07:45:49;;;;;;;2.83;1.63;;;22.00;51.50;;;;;;5067905;28;43420;-59
2022/05/16 07:48:17;;;;;;;4.10;1.60;;;22.20;52.00;;;;;;5066494;28;43446;-61
2022/05/16 07:50:45;;;;;;;3.38;1.70;;;22.30;51.20;;;;;;5068569;27;43450;-60
2022/05/16 07:53:14;;;;;;;3.53;1.75;;;22.50;50.80;;;;;;5066840;28;44975;-61
2022/05/16 07:55:53;;;;;;;4.03;2.00;;;22.70;50.70;;;;;;5066364;28;43466;-60
2022/05/16 07:58:22;;;;;;;5.68;1.70;;;22.80;50.40;;;;;;5064949;28;43478;-59
2022/05/16 08:00:55;;;;;;;2.80;1.50;;;22.90;50.30;;;;;;5068996;28;43585;-60
2022/05/16 08:03:25;;;;;;;4.22;1.77;;;23.00;50.10;;;;;;5068389;27;44050;-61
2022/05/16 08:05:52;;;;;;;6.95;1.50;;;23.10;50.00;;;;;;5055024;28;43723;-61
2022/05/16 08:11:06;;;;;;;4.32;1.52;;;23.20;49.60;;;;;;5070593;28;43449;-61
2022/05/16 08:13:33;;;;;;;5.20;1.30;;;23.30;49.60;;;;;;5067184;28;44980;-61
2022/05/16 08:16:01;;;;;;;4.35;1.50;;;23.40;49.30;;;;;;5056967;28;43716;-61
2022/05/16 08:18:28;;;;;;;2.63;1.60;;;23.50;49.30;;;;;;5061060;28;43487;-62
2022/05/16 08:20:57;;;;;;;3.15;1.58;;;23.50;49.60;;;;;;5064785;28;43462;-61
2022/05/16 08:23:28;;;;;;;2.83;1.42;;;23.50;49.40;;;;;;5063556;28;44031;-61
2022/05/16 08:25:56;;;;;;;;;;;23.50;49.40;;;;;;5065158;28;43465;-61
2022/05/16 08:28:23;;;;;;;3.58;1.55;;;23.50;49.40;;;;;;5065052;28;43446;-61
2022/05/16 08:30:51;;;;;;;2.67;1.80;;;23.50;49.50;;;;;;5074278;27;43487;-61
2022/05/16 08:33:18;;;;;;;2.33;1.38;;;23.50;49.70;;;;;;5062307;28;43785;-61
2022/05/16 08:39:52;;;;;;;1.67;1.42;;;23.50;49.70;;;;;;5063903;28;43771;-61
2022/05/16 08:41:28;;;;;;;2.40;1.30;;;23.40;49.80;;;;;;5064091;28;43613;-61
2022/05/16 08:44:09;;;;;;;2.35;1.33;;;23.40;50.00;;;;;;5065941;28;43840;-61
2022/05/16 08:47:13;;;;;;;2.25;1.60;;;23.30;50.00;;;;;;5080905;27;43814;-61
2022/05/16 08:50:01;;;;;;;2.88;1.63;;;23.40;49.90;;;;;;5065394;28;43430;-61
2022/05/16 08:52:58;;;;;;;3.25;1.15;;;23.30;49.70;;;;;;5064619;28;43428;-62
2022/05/16 08:55:40;;;;;;;3.60;1.60;;;23.30;50.00;;;;;;5056837;28;44955;-61
2022/05/16 08:58:10;;;;;;;2.15;1.60;;;23.30;50.20;;;;;;5068961;28;43978;-61
2022/05/16 09:00:56;;;;;;;3.70;1.50;;;23.30;51.10;;;;;;5066049;28;43401;-61
2022/05/16 09:03:45;;;;;;;1.83;1.50;;;23.30;50.40;;;;;;5064115;28;43437;-61
2022/05/16 09:06:46;;;;;;;3.17;1.40;;;23.20;50.40;;;;;;5063972;28;44678;-62
2022/05/16 09:09:20;;;;;;;1.55;1.45;;;23.20;50.60;;;;;;5061001;27;43443;-61
2022/05/16 09:12:14;;;;;;;1.88;1.65;;;23.20;50.60;;;;;;5066498;28;43413;-61
2022/05/16 09:14:54;;;;;;;2.22;1.40;;;23.20;50.80;;;;;;5061474;28;43419;-61
2022/05/16 09:17:55;;;;;;;2.45;1.50;;;23.20;50.80;;;;;;5062646;28;43815;-61
2022/05/16 09:20:43;;;;;;;6.60;2.30;;;23.20;50.70;;;;;;5064542;28;43864;-61
2022/05/16 09:23:29;;;;;;;1.88;1.70;;;23.20;50.80;;;;;;5062346;28;43424;-61
2022/05/16 09:26:31;;;;;;;1.73;1.23;;;23.20;50.60;;;;;;5067493;28;43530;-61
2022/05/16 09:29:18;;;;;;;2.08;1.40;;;23.10;50.80;;;;;;5062953;28;44019;-61
2022/05/16 09:31:49;;;;;;;3.67;1.70;;;23.10;50.30;;;;;;5065052;28;43489;-61
2022/05/16 09:34:26;;;;;;;4.10;1.55;;;23.10;50.50;;;;;;5066970;28;43428;-61
2022/05/16 09:36:53;;;;;;;3.67;1.73;;;23.00;50.40;;;;;;5069400;28;43455;-61
2022/05/16 09:39:24;;;;;;;1.63;1.20;;;23.00;50.70;;;;;;5070338;28;44061;-61
2022/05/16 09:42:10;;;;;;;2.00;1.40;;;23.00;50.70;;;;;;5069902;28;43989;-61
2022/05/16 09:44:49;;;;;;;2.75;1.63;;;23.00;50.90;;;;;;5068875;28;43431;-62
2022/05/16 09:47:26;;;;;;;2.60;1.83;;;23.00;50.90;;;;;;5069689;28;43456;-61
2022/05/16 09:50:05;;;;;;;1.88;1.35;;;23.00;50.80;;;;;;5068471;28;44686;-61
2022/05/16 09:52:58;;;;;;;1.45;1.25;;;23.00;51.00;;;;;;5069143;28;43737;-61
2022/05/16 09:55:33;;;;;;;2.33;1.50;;;23.00;50.80;;;;;;5063068;28;43505;-61
2022/05/16 09:58:12;;;;;;;3.13;1.38;;;23.10;50.90;;;;;;5068045;28;43549;-61
2022/05/16 10:00:52;;;;;;;1.88;1.50;;;23.00;50.90;;;;;;5068943;28;45005;-61
2022/05/16 10:03:30;;;;;;;2.03;1.50;;;23.10;51.10;;;;;;5066972;28;43741;-61
2022/05/16 10:06:02;;;;;;;1.92;1.45;;;23.10;51.10;;;;;;5059585;28;43382;-61
2022/05/16 10:08:32;;;;;;;4.40;1.50;;;23.10;50.80;;;;;;5066095;28;44063;-61
2022/05/16 10:11:03;;;;;;;1.95;1.40;;;23.10;50.80;;;;;;5069875;28;43858;-62
2022/05/16 10:13:32;;;;;;;2.38;1.50;;;23.00;50.70;;;;;;5064435;28;43536;-61
2022/05/16 10:16:03;;;;;;;2.60;1.58;;;23.00;50.70;;;;;;5068526;28;43458;-60
2022/05/16 10:18:32;;;;;;;;;;;23.00;50.80;;;;;;5064781;28;43452;-61
2022/05/16 10:21:05;;;;;;;1.92;1.50;;;23.00;50.90;;;;;;5071909;27;44761;-61
2022/05/16 10:23:42;;;;;;;1.95;1.35;;;23.00;50.90;;;;;;5063310;28;43741;-61
2022/05/16 10:26:18;;;;;;;3.25;1.52;;;23.00;50.80;;;;;;5067511;28;43443;-61
2022/05/16 10:28:59;;;;;;;4.10;1.65;;;23.00;50.70;;;;;;5066820;28;43514;-61
2022/05/16 10:34:38;;;;;;;1.85;1.30;;;23.00;50.60;;;;;;5069322;28;43740;-61
2022/05/16 10:37:06;;;;;;;1.90;1.33;;;23.00;50.80;;;;;;5068124;28;43458;-61
2022/05/16 10:39:37;;;;;;;3.28;1.58;;;23.00;50.60;;;;;;5068279;28;43433;-61
2022/05/16 10:42:14;;;;;;;2.28;1.40;;;23.10;50.70;;;;;;5066365;28;44848;-61
2022/05/16 10:44:48;;;;;;;2.03;1.40;;;23.10;50.70;;;;;;5063268;27;43713;-61
2022/05/16 10:47:21;;;;;;;1.88;1.48;;;23.10;50.50;;;;;;5067737;28;43502;-61
2022/05/16 10:50:02;;;;;;;2.33;1.55;;;23.10;50.40;;;;;;5063829;28;43607;-61
2022/05/16 10:52:36;;;;;;;2.97;1.48;;;23.10;50.70;;;;;;5063954;28;43791;-61
2022/05/16 10:55:05;;;;;;;1.90;1.30;;;23.10;50.80;;;;;;5066415;28;43671;-61
2022/05/16 10:57:47;;;;;;;2.63;1.52;;;23.10;50.70;;;;;;5066542;28;43464;-61
2022/05/16 11:00:23;;;;;;;1.55;1.45;;;23.10;50.60;;;;;;5067303;28;43509;-61
2022/05/16 11:03:34;;;;;;;2.05;1.50;;;23.10;50.60;;;;;;5062122;28;44687;-61
2022/05/16 11:06:21;;;;;;;1.87;1.50;;;23.10;50.50;;;;;;5069846;28;43668;-61
2022/05/16 11:09:10;;;;;;;4.05;1.90;;;23.10;50.60;;;;;;5065338;28;43487;-61
2022/05/16 11:12:00;;;;;;;3.17;1.77;;;23.10;50.60;;;;;;5066186;28;43553;-61
2022/05/16 11:14:48;;;;;;;1.65;1.30;;;23.10;50.70;;;;;;5067203;28;43759;-61
2022/05/16 11:17:30;;;;;;;1.60;1.50;;;23.20;50.50;;;;;;5057560;28;43719;-61
2022/05/16 11:20:15;;;;;;;1.80;1.50;;;23.20;50.50;;;;;;5064889;28;43444;-61
2022/05/16 11:22:49;;;;;;;2.38;1.33;;;23.20;50.50;;;;;;5068078;28;43444;-61
2022/05/16 11:25:25;;;;;;;1.83;1.30;;;23.30;50.50;;;;;;5062966;28;44699;-61
2022/05/16 11:28:19;;;;;;;2.05;1.45;;;23.20;50.50;;;;;;5069377;27;43698;-61
2022/05/16 11:30:58;;;;;;;1.85;1.52;;;23.30;50.50;;;;;;5071240;27;43482;-61
2022/05/16 11:33:54;;;;;;;1.85;1.40;;;23.30;50.50;;;;;;5068892;28;43449;-61
2022/05/16 11:36:44;;;;;;;2.50;1.50;;;23.40;50.60;;;;;;5067227;28;44988;-61
2022/05/16 11:39:15;;;;;;;2.25;1.55;;;23.40;50.80;;;;;;5064773;28;43950;-61
2022/05/16 11:41:51;;;;;;;2.13;1.45;;;23.40;50.60;;;;;;5066583;28;43495;-61
2022/05/16 11:44:31;;;;;;;2.20;1.50;;;23.40;50.60;;;;;;5067104;28;43497;-61
2022/05/16 11:47:18;;;;;;;4.03;1.70;;;23.30;50.40;;;;;;5064881;28;43794;-61
2022/05/16 11:50:27;;;;;;;3.83;1.50;;;23.40;50.40;;;;;;5071092;28;43434;-61
2022/05/16 11:53:25;;;;;;;3.45;1.50;;;23.30;50.50;;;;;;5067497;28;43433;-61
2022/05/16 12:01:35;;;;;;;1.60;1.50;;;23.40;50.50;;;;;;5067539;28;44038;-61
2022/05/16 12:04:20;;;;;;;2.35;1.58;;;23.40;50.50;;;;;;5067220;28;43458;-61
2022/05/16 12:06:58;;;;;;;2.13;1.40;;;23.40;50.50;;;;;;5068009;28;43500;-61
2022/05/16 12:09:31;;;;;;;1.75;1.40;;;23.40;50.50;;;;;;5064852;28;44819;-61
2022/05/16 12:12:00;;;;;;;1.95;1.40;;;23.40;50.50;;;;;;5071290;28;43764;-61
2022/05/16 12:14:32;;;;;;;2.17;1.40;;;23.40;50.50;;;;;;5067396;28;43413;-61
2022/05/16 12:17:18;;;;;;;2.15;1.55;;;23.40;50.50;;;;;;5064950;27;43593;-61
2022/05/16 12:19:48;;;;;;;1.70;1.60;;;23.40;50.50;;;;;;5065936;28;46182;-61
2022/05/16 12:22:34;;;;;;;2.47;1.58;;;23.40;50.40;;;;;;5066763;28;43382;-61
2022/05/16 12:25:23;;;;;;;2.00;1.73;;;23.40;50.40;;;;;;5065512;28;43363;-61
2022/05/16 12:28:13;;;;;;;1.70;1.60;;;23.40;50.40;;;;;;5066474;28;43479;-61
2022/05/16 12:30:44;;;;;;;1.67;1.42;;;23.40;50.40;;;;;;5064663;28;44083;-61
2022/05/16 12:33:30;;;;;;;;;;;23.40;50.50;;;;;;5082615;27;43693;-61
2022/05/16 12:35:57;;;;;;;1.40;1.30;;;23.40;50.50;;;;;;5065410;28;43475;-61
2022/05/16 12:38:27;;;;;;;1.38;1.25;;;23.40;50.50;;;;;;5068260;28;43387;-61
2022/05/16 12:41:01;;;;;;;2.73;1.70;;;23.40;50.50;;;;;;5066396;27;45381;-61
2022/05/16 12:43:50;;;;;;;2.38;1.60;;;23.40;50.50;;;;;;5066487;28;43459;-61
2022/05/16 12:46:49;;;;;;;1.73;1.63;;;23.40;50.40;;;;;;5065787;28;43454;-61
2022/05/16 12:49:38;;;;;;;1.60;1.50;;;23.40;50.50;;;;;;5063418;28;43434;-61
2022/05/16 12:52:34;;;;;;;1.90;1.50;;;23.40;50.50;;;;;;5067104;28;44819;-61
2022/05/16 12:55:44;;;;;;;2.55;1.30;;;23.40;50.50;;;;;;5066440;28;43983;-60
2022/05/16 12:58:35;;;;;;;1.60;1.38;;;23.40;50.50;;;;;;5064790;28;43386;-61
2022/05/16 13:01:17;;;;;;;2.00;1.60;;;23.40;50.50;;;;;;5066426;28;43445;-61
2022/05/16 13:03:57;;;;;;;1.92;1.23;;;23.40;50.60;;;;;;5065656;28;44976;-61
2022/05/16 13:06:31;;;;;;;2.35;1.50;;;23.40;50.60;;;;;;5066530;27;43405;-61
2022/05/16 13:09:03;;;;;;;2.97;1.70;;;23.40;50.70;;;;;;5068926;28;43412;-60
2022/05/16 13:11:43;;;;;;;1.40;1.30;;;23.40;50.60;;;;;;5070036;28;43454;-61
2022/05/16 13:14:21;;;;;;;2.17;1.30;;;23.40;50.70;;;;;;5069144;28;43807;-61
2022/05/16 13:17:10;;;;;;;1.70;1.50;;;23.40;50.70;;;;;;5069253;28;43971;-61
2022/05/16 13:19:44;;;;;;;1.92;1.30;;;23.40;50.80;;;;;;5071777;28;43439;-61
2022/05/16 13:22:20;;;;;;;1.75;1.65;;;23.50;50.80;;;;;;5070198;28;43461;-61
2022/05/16 13:24:52;;;;;;;1.30;1.20;;;23.50;50.70;;;;;;5069294;28;44007;-61
2022/05/16 13:30:15;;;;;;;1.73;1.30;;;23.50;50.70;;;;;;5080931;27;44022;-61
2022/05/16 13:32:43;;;;;;;1.23;1.13;;;23.50;50.90;;;;;;5069725;28;43533;-61
2022/05/16 13:35:24;;;;;;;1.55;1.40;;;23.50;50.70;;;;;;5075716;28;44700;-61
2022/05/16 13:37:53;;;;;;;1.95;1.20;;;23.50;50.60;;;;;;5085359;27;43491;-61
2022/05/16 13:40:33;;;;;;;1.63;1.52;;;23.60;50.60;;;;;;5063151;28;43580;-61
2022/05/16 13:43:21;;;;;;;1.67;1.50;;;23.60;50.50;;;;;;5068891;28;43467;-61
2022/05/16 13:46:06;;;;;;;3.40;1.70;;;23.60;50.50;;;;;;5068877;28;44856;-62
2022/05/16 13:48:34;;;;;;;1.60;1.30;;;23.60;50.50;;;;;;5067745;28;44993;-61
2022/05/16 13:51:02;;;;;;;1.80;1.50;;;23.60;50.60;;;;;;5067306;28;44005;-61